Time;durP1;ratioP1;P1;durP2;ratioP2;P2;SDS_P1;SDS_P2;PMS_P1;PMS_P2;Temp;Humidity;BMP_temperature;BMP_pressure;BME280_temperature;BME280_humidity;BME280_pressure;Samples;Min_cycle;Max_cycle;Signal;HPM_P1;HPM_P2
2022/04/04 00:01:16;;;;;;;7.32;2.88;;;4.70;99.90;;;3.23;89.18;100642.44;4981215;28;20045;-71
2022/04/04 00:03:45;;;;;;;5.70;2.30;;;4.80;99.90;;;3.25;89.40;100645.84;4981631;28;20092;-72
2022/04/04 00:06:11;;;;;;;10.30;2.80;;;4.80;99.90;;;3.28;89.16;100637.97;4979199;28;20460;-72
2022/04/04 00:08:37;;;;;;;12.43;2.88;;;4.80;99.90;;;3.32;89.00;100637.03;4982704;28;20113;-72
2022/04/04 00:11:05;;;;;;;8.38;3.00;;;4.80;99.90;;;3.35;88.91;100631.81;4981467;28;20045;-71
2022/04/04 00:13:31;;;;;;;11.77;2.90;;;4.90;99.90;;;3.41;88.62;100633.41;4980363;28;20030;-71
2022/04/04 00:15:57;;;;;;;11.30;2.47;;;4.90;99.90;;;3.41;88.24;100634.28;4980178;28;20128;-72
2022/04/04 00:18:23;;;;;;;8.75;2.95;;;4.90;99.90;;;3.46;88.03;100629.84;4982199;28;20465;-72
2022/04/04 00:20:52;;;;;;;11.00;2.42;;;5.00;99.90;;;3.50;87.66;100630.66;4980829;28;20049;-72
2022/04/04 00:23:19;;;;;;;14.75;3.10;;;5.00;99.90;;;3.47;87.67;100621.13;4977514;28;20112;-72
2022/04/04 00:25:47;;;;;;;7.80;2.88;;;5.00;99.90;;;3.48;87.68;100622.88;4978980;28;20041;-72
2022/04/04 00:28:15;;;;;;;11.63;2.65;;;5.00;99.90;;;3.54;87.02;100610.63;4975365;28;20014;-71
2022/04/04 00:30:42;;;;;;;12.98;2.95;;;5.00;99.90;;;3.57;86.90;100615.78;4980288;28;20038;-71
2022/04/04 00:33:08;;;;;;;10.00;3.05;;;5.10;99.90;;;3.60;87.00;100606.13;4978946;28;20066;-72
2022/04/04 00:35:35;;;;;;;9.60;3.03;;;5.10;99.90;;;3.60;87.03;100605.28;4963391;28;20404;-71
2022/04/04 00:38:06;;;;;;;8.50;2.88;;;5.10;99.90;;;3.60;86.75;100608.75;4977222;28;20042;-71
2022/04/04 00:40:32;;;;;;;11.70;2.80;;;5.10;99.90;;;3.62;86.50;100609.56;4979177;28;20025;-71
2022/04/04 00:42:58;;;;;;;11.85;2.70;;;5.20;99.90;;;3.62;86.29;100596.56;4964528;28;20079;-72
2022/04/04 00:45:24;;;;;;;10.90;2.90;;;5.20;99.90;;;3.64;86.52;100596.53;4982687;28;20033;-71
2022/04/04 00:47:50;;;;;;;8.35;3.03;;;5.20;99.90;;;3.64;86.70;100592.19;4981979;28;20375;-71
2022/04/04 00:50:16;;;;;;;11.27;3.25;;;5.20;99.90;;;3.61;86.33;100589.66;4981220;28;20025;-71
2022/04/04 00:52:42;;;;;;;10.93;3.05;;;5.20;99.90;;;3.66;86.24;100592.16;5009664;28;20651;-71
2022/04/04 00:55:11;;;;;;;12.20;2.88;;;5.20;99.90;;;3.65;86.05;100585.22;4979704;28;20136;-72
2022/04/04 00:57:37;;;;;;;12.32;2.90;;;5.20;99.90;;;3.66;86.27;100585.19;4973353;28;20153;-72
2022/04/04 01:00:09;;;;;;;10.60;3.80;;;5.20;99.90;;;3.64;86.62;100588.72;4978382;28;20041;-72
2022/04/04 01:02:37;;;;;;;18.73;3.30;;;5.20;99.90;;;3.65;86.04;100577.41;4979711;28;20038;-72
2022/04/04 01:05:04;;;;;;;9.63;3.20;;;5.20;99.90;;;3.62;86.79;100580.94;4980512;28;20034;-71
2022/04/04 01:07:31;;;;;;;10.85;3.13;;;5.20;99.90;;;3.60;86.59;100569.69;4980700;28;20038;-72
2022/04/04 01:09:57;;;;;;;10.30;2.90;;;5.20;99.90;;;3.64;86.50;100567.88;4981520;28;20028;-72
2022/04/04 01:12:23;;;;;;;10.73;3.13;;;5.20;99.90;;;3.62;86.63;100570.53;4982823;28;22599;-71
2022/04/04 01:14:50;;;;;;;8.93;3.28;;;5.20;99.90;;;3.65;86.23;100569.59;4979803;28;20029;-72
2022/04/04 01:17:25;;;;;;;11.05;3.22;;;5.20;99.90;;;3.64;86.60;100562.69;4982491;28;20039;-72
2022/04/04 01:19:52;;;;;;;14.88;3.22;;;5.10;99.90;;;3.66;86.51;100563.50;4984542;28;20485;-72
2022/04/04 01:22:18;;;;;;;16.35;3.25;;;5.20;99.90;;;3.65;86.62;100567.88;4990332;28;20054;-71
2022/04/04 01:24:45;;;;;;;7.65;3.17;;;5.20;99.90;;;3.65;86.53;100556.56;5010958;28;20386;-71
2022/04/04 01:27:12;;;;;;;10.30;3.15;;;5.20;99.90;;;3.68;86.42;100553.91;4973451;28;20065;-71
2022/04/04 01:29:39;;;;;;;10.20;3.25;;;5.20;99.90;;;3.64;86.56;100545.31;4971487;28;20487;-72
2022/04/04 01:32:08;;;;;;;14.52;3.20;;;5.20;99.90;;;3.62;86.44;100544.47;4994574;28;20030;-71
2022/04/04 01:34:34;;;;;;;12.13;3.33;;;5.20;99.90;;;3.63;86.43;100530.59;4977629;28;20495;-72
2022/04/04 01:37:01;;;;;;;16.65;3.50;;;5.10;99.90;;;3.57;86.60;100538.53;4983421;28;20114;-71
2022/04/04 01:39:27;;;;;;;10.48;3.40;;;5.10;99.90;;;3.57;86.70;100532.47;4995757;28;20113;-72
2022/04/04 01:41:53;;;;;;;7.63;3.15;;;5.10;99.90;;;3.58;86.70;100528.97;4991616;28;20045;-71
2022/04/04 01:44:19;;;;;;;10.23;3.35;;;5.10;99.90;;;3.55;86.70;100532.50;4985792;28;20510;-72
2022/04/04 01:46:45;;;;;;;13.07;3.40;;;5.10;99.90;;;3.54;87.20;100525.56;4981363;28;20390;-72
2022/04/04 01:49:12;;;;;;;13.43;3.38;;;5.10;99.90;;;3.50;86.88;100516.13;4984590;28;20124;-72
2022/04/04 01:51:39;;;;;;;9.88;3.33;;;5.00;99.90;;;3.46;87.33;100511.88;4983918;28;20121;-71
2022/04/04 01:54:06;;;;;;;10.40;3.33;;;5.00;99.90;;;3.44;87.40;100509.28;4983042;28;20116;-72
2022/04/04 01:56:33;;;;;;;12.07;4.00;;;5.00;99.90;;;3.42;87.38;100510.22;4985163;28;20037;-72
2022/04/04 01:59:01;;;;;;;15.40;3.30;;;5.00;99.90;;;3.43;87.36;100507.56;4985046;28;20084;-73
2022/04/04 02:01:28;;;;;;;10.90;3.53;;;5.00;99.90;;;3.46;87.35;100504.06;4985225;28;20057;-72
2022/04/04 02:03:56;;;;;;;8.68;3.60;;;5.00;99.90;;;3.41;87.44;100498.94;4983560;28;20038;-72
2022/04/04 02:06:23;;;;;;;10.98;3.38;;;5.00;99.90;;;3.45;87.37;100497.97;4974259;28;20567;-72
2022/04/04 02:08:50;;;;;;;12.48;3.72;;;5.00;99.90;;;3.41;87.44;100493.75;4984049;28;20120;-72
2022/04/04 02:11:19;;;;;;;7.88;3.65;;;5.00;99.90;;;3.41;87.29;100488.53;4999060;28;20599;-72
2022/04/04 02:13:46;;;;;;;11.52;3.90;;;5.00;99.90;;;3.39;87.50;100492.91;4985371;28;20440;-72
2022/04/04 02:16:13;;;;;;;16.27;4.32;;;4.90;99.90;;;3.37;87.28;100489.47;4984618;28;20038;-72
2022/04/04 02:18:40;;;;;;;10.98;4.18;;;4.90;99.90;;;3.34;87.43;100488.69;4976372;28;20151;-72
2022/04/04 02:21:07;;;;;;;9.85;4.05;;;4.90;99.90;;;3.30;87.28;100482.66;4982617;28;20097;-72
2022/04/04 02:23:34;;;;;;;16.15;4.55;;;4.90;99.90;;;3.29;87.53;100483.56;4982052;28;20029;-71
2022/04/04 02:26:00;;;;;;;13.95;4.50;;;4.90;99.90;;;3.27;87.70;100481.00;4998520;28;20364;-72
2022/04/04 02:28:28;;;;;;;9.45;4.63;;;4.90;99.90;;;3.27;87.73;100475.78;4985472;28;20092;-71
2022/04/04 02:30:56;;;;;;;13.82;4.38;;;4.80;99.90;;;3.31;87.74;100474.00;4983132;28;20517;-72
2022/04/04 02:33:23;;;;;;;13.48;4.78;;;4.90;99.90;;;3.34;87.44;100468.72;4980296;28;20041;-71
2022/04/04 02:35:52;;;;;;;14.57;4.50;;;4.90;99.90;;;3.32;87.80;100467.88;5014652;28;20064;-72
2022/04/04 02:38:21;;;;;;;9.93;4.32;;;4.90;99.90;;;3.30;87.71;100474.88;4994691;28;20043;-71
2022/04/04 02:40:48;;;;;;;15.20;4.80;;;4.80;99.90;;;3.28;87.85;100472.31;4987460;28;20022;-72
2022/04/04 02:43:14;;;;;;;15.35;4.32;;;4.90;99.90;;;3.27;87.72;100472.34;4985063;28;20549;-72
2022/04/04 02:45:40;;;;;;;11.55;3.97;;;4.90;99.90;;;3.34;87.81;100470.47;4990433;28;20014;-72
2022/04/04 02:48:07;;;;;;;16.23;4.55;;;4.90;99.90;;;3.32;87.66;100457.47;4986201;28;20022;-72
2022/04/04 02:50:34;;;;;;;8.75;4.45;;;4.90;99.90;;;3.31;87.66;100460.97;4983097;28;20026;-72
2022/04/04 02:53:01;;;;;;;12.25;4.43;;;4.90;99.90;;;3.32;87.75;100462.69;4982366;28;20049;-71
2022/04/04 02:58:12;;;;;;;10.00;4.00;;;4.80;99.90;;;3.26;87.84;100463.69;4984731;28;20415;-72
2022/04/04 03:00:38;;;;;;;9.95;4.57;;;4.80;99.90;;;3.17;88.19;100458.66;4980502;28;20034;-71
2022/04/04 03:03:04;;;;;;;13.35;4.20;;;4.80;99.90;;;3.10;88.29;100458.81;4980190;28;20113;-72
2022/04/04 03:05:29;;;;;;;10.95;4.47;;;4.70;99.90;;;3.05;88.51;100462.38;4985332;28;20117;-73
2022/04/04 03:07:55;;;;;;;11.82;3.88;;;4.70;99.90;;;2.99;88.39;100449.47;4983850;28;20026;-71
2022/04/04 03:10:21;;;;;;;13.40;4.50;;;4.60;99.90;;;2.97;88.67;100446.03;4959083;28;20083;-72
2022/04/04 03:12:51;;;;;;;9.30;4.07;;;4.60;99.90;;;2.92;89.00;100441.84;4981812;28;20030;-72
2022/04/04 03:15:23;;;;;;;15.38;4.00;;;4.50;99.90;;;2.85;89.18;100444.56;4983428;28;20573;-72
2022/04/04 03:17:53;;;;;;;11.00;3.77;;;4.50;99.90;;;2.79;89.27;100436.03;4981831;28;20069;-71
2022/04/04 03:20:23;;;;;;;9.65;3.75;;;4.40;99.90;;;2.74;89.77;100436.06;4984364;28;20022;-71
2022/04/04 03:22:56;;;;;;;18.38;4.07;;;4.40;99.90;;;2.75;89.71;100430.00;4964765;28;20030;-72
2022/04/04 03:25:23;;;;;;;13.77;4.75;;;4.40;99.90;;;2.74;89.77;100427.44;4973040;28;20027;-72
2022/04/04 03:27:50;;;;;;;13.13;4.45;;;4.40;99.90;;;2.72;89.95;100426.59;5010403;28;20030;-72
2022/04/04 03:30:25;;;;;;;9.93;4.32;;;4.30;99.90;;;2.71;90.29;100432.69;4968666;28;20133;-71
2022/04/04 03:32:55;;;;;;;15.35;4.50;;;4.30;99.90;;;2.66;90.49;100418.03;4980395;28;20544;-71
2022/04/04 03:35:23;;;;;;;7.80;3.80;;;4.30;99.90;;;2.68;90.60;100410.22;4997726;28;20019;-72
2022/04/04 03:37:52;;;;;;;10.23;4.75;;;4.30;99.90;;;2.70;90.76;100411.06;4997430;28;20625;-73
2022/04/04 03:40:19;;;;;;;14.95;4.38;;;4.30;99.90;;;2.69;90.84;100409.31;4974512;28;20038;-72
2022/04/04 03:42:50;;;;;;;18.90;4.82;;;4.30;99.90;;;2.64;90.83;100405.97;5004585;28;20096;-72
2022/04/04 03:45:19;;;;;;;14.18;3.83;;;4.20;99.90;;;2.63;90.94;100399.03;4993578;28;20121;-72
2022/04/04 03:47:47;;;;;;;11.70;4.35;;;4.20;99.90;;;2.61;91.19;100398.22;4983216;28;20037;-72
2022/04/04 03:50:15;;;;;;;11.57;3.92;;;4.20;99.90;;;2.55;91.11;100388.81;4979081;28;20113;-72
2022/04/04 03:52:43;;;;;;;12.73;5.25;;;4.20;99.90;;;2.48;91.47;100389.78;4981025;28;20050;-72
2022/04/04 03:55:11;;;;;;;9.88;3.63;;;4.10;99.90;;;2.48;91.39;100381.97;4981892;28;20029;-72
2022/04/04 03:57:40;;;;;;;11.25;4.00;;;4.10;99.90;;;2.42;91.65;100379.53;4982896;28;20101;-72
2022/04/04 04:00:08;;;;;;;8.27;3.45;;;4.10;99.90;;;2.45;91.81;100369.06;4980683;28;20034;-71
2022/04/04 04:02:36;;;;;;;9.27;4.13;;;4.10;99.90;;;2.45;91.64;100369.06;4999178;28;20397;-71
2022/04/04 04:05:03;;;;;;;15.40;3.83;;;4.00;99.90;;;2.44;91.70;100375.13;4963296;28;20116;-72
2022/04/04 04:07:30;;;;;;;9.98;3.72;;;4.10;99.90;;;2.39;91.49;100372.63;4979018;28;20567;-72
2022/04/04 04:09:56;;;;;;;13.43;3.60;;;4.00;99.90;;;2.38;91.38;100357.09;4975784;28;20042;-72
2022/04/04 04:12:22;;;;;;;12.70;4.00;;;4.00;99.90;;;2.36;91.26;100358.84;5010589;28;20037;-72
2022/04/04 04:14:51;;;;;;;9.02;3.50;;;4.00;99.90;;;2.32;91.42;100352.84;4983182;28;20035;-72
2022/04/04 04:17:22;;;;;;;10.85;2.97;;;4.00;99.90;;;2.30;91.51;100348.56;4996945;28;20117;-72
2022/04/04 04:22:33;;;;;;;14.18;3.40;;;3.90;99.90;;;2.24;90.89;100345.19;4974861;28;20065;-72
2022/04/04 04:25:01;;;;;;;11.70;3.45;;;3.90;99.90;;;2.22;90.75;100336.56;4998257;28;20056;-72
2022/04/04 04:27:27;;;;;;;7.88;2.95;;;3.90;99.90;;;2.22;91.00;100341.75;4980379;28;20029;-72
2022/04/04 04:29:53;;;;;;;9.95;3.20;;;3.90;99.90;;;2.21;90.49;100334.84;4995638;28;20368;-72
2022/04/04 04:32:21;;;;;;;7.10;2.85;;;3.80;99.90;;;2.22;90.50;100335.69;4982047;28;20427;-72
2022/04/04 04:34:50;;;;;;;11.52;2.97;;;3.90;99.90;;;2.18;90.23;100321.94;4974767;28;20033;-72
2022/04/04 04:37:23;;;;;;;7.18;3.13;;;3.90;99.90;;;2.23;90.23;100322.69;4982435;28;20037;-72
2022/04/04 04:39:51;;;;;;;15.88;3.28;;;3.80;99.90;;;2.17;89.69;100322.81;4977471;28;20156;-73
2022/04/04 04:42:17;;;;;;;5.50;3.17;;;3.80;99.90;;;2.18;89.56;100327.13;4980439;28;23617;-72
2022/04/04 04:44:45;;;;;;;9.07;2.95;;;3.80;99.90;;;2.17;89.36;100320.22;4980127;28;20027;-72
2022/04/04 04:47:14;;;;;;;11.77;3.05;;;3.80;99.90;;;2.15;89.16;100327.16;4997575;28;20561;-72
2022/04/04 04:49:40;;;;;;;6.97;3.00;;;3.80;99.90;;;2.16;88.98;100322.81;4981825;28;20022;-71
2022/04/04 04:52:06;;;;;;;21.83;3.35;;;3.80;99.90;;;2.13;88.86;100310.75;4996882;28;20045;-74
2022/04/04 04:54:32;;;;;;;7.85;3.40;;;3.80;99.90;;;2.14;88.67;100311.59;4985612;28;20026;-72
2022/04/04 04:56:58;;;;;;;9.68;3.25;;;3.80;99.90;;;2.15;88.37;100303.78;4980527;28;20027;-71
2022/04/04 04:59:25;;;;;;;5.47;2.90;;;3.80;99.90;;;2.15;88.30;100298.59;4983908;28;20046;-72
2022/04/04 05:01:51;;;;;;;11.57;3.40;;;3.80;99.90;;;2.12;88.14;100293.47;4986649;28;20113;-72
2022/04/04 05:04:18;;;;;;;7.53;3.55;;;3.80;99.90;;;2.16;88.11;100289.06;4988553;28;20038;-72
2022/04/04 05:06:48;;;;;;;10.55;3.35;;;3.80;99.90;;;2.13;88.12;100289.97;4979609;28;20033;-71
2022/04/04 05:09:16;;;;;;;12.30;3.13;;;3.80;99.90;;;2.16;87.85;100284.75;4965588;28;21810;-71
2022/04/04 05:11:42;;;;;;;11.95;3.53;;;3.80;99.90;;;2.15;88.00;100276.97;5005998;28;20116;-71
2022/04/04 05:14:15;;;;;;;11.55;3.60;;;3.80;99.90;;;2.15;88.08;100274.38;4986832;28;20449;-72
2022/04/04 05:16:46;;;;;;;9.63;4.18;;;3.80;99.90;;;2.24;87.94;100271.59;4980178;28;20487;-73
2022/04/04 05:19:17;;;;;;;7.63;3.85;;;3.90;99.90;;;2.21;87.98;100269.06;4980555;28;20050;-71
2022/04/04 05:21:44;;;;;;;9.55;3.67;;;3.80;99.90;;;2.18;88.16;100269.97;4980149;28;20514;-72
2022/04/04 05:24:11;;;;;;;7.93;3.15;;;3.80;99.90;;;2.21;88.04;100259.53;4977537;28;20038;-71
2022/04/04 05:26:37;;;;;;;10.02;3.72;;;3.90;99.90;;;2.26;88.05;100262.88;4972494;28;20034;-72
2022/04/04 05:29:04;;;;;;;5.25;3.10;;;3.90;99.90;;;2.29;87.79;100258.50;4977257;28;20049;-72
2022/04/04 05:31:31;;;;;;;8.77;3.05;;;3.90;99.90;;;2.31;87.87;100254.13;4995403;28;20034;-71
2022/04/04 05:33:59;;;;;;;10.77;3.28;;;3.90;99.90;;;2.32;87.39;100254.13;4979985;28;20144;-72
2022/04/04 05:36:27;;;;;;;10.98;4.07;;;3.90;99.90;;;2.35;87.18;100253.19;4965066;28;20044;-72
2022/04/04 05:38:54;;;;;;;12.60;3.28;;;3.90;99.90;;;2.34;86.96;100247.16;4953768;28;20064;-71
2022/04/04 05:41:21;;;;;;;13.38;3.83;;;3.90;99.90;;;2.38;86.92;100247.94;4990143;28;20504;-71
2022/04/04 05:43:47;;;;;;;9.90;3.50;;;4.00;99.90;;;2.43;86.73;100253.91;5015286;28;20079;-72
2022/04/04 05:46:16;;;;;;;6.53;2.95;;;4.00;99.90;;;2.47;86.57;100247.75;4981346;28;20062;-72
2022/04/04 05:48:43;;;;;;;8.43;3.42;;;4.00;99.90;;;2.49;86.68;100248.56;4962782;28;20033;-72
2022/04/04 05:51:10;;;;;;;8.60;3.50;;;4.10;99.90;;;2.51;86.86;100252.00;4965076;28;20061;-72
2022/04/04 05:53:37;;;;;;;14.13;3.75;;;4.10;99.90;;;2.50;86.87;100241.63;4981326;28;20463;-72
2022/04/04 05:56:03;;;;;;;9.50;3.78;;;4.10;99.90;;;2.54;86.71;100235.47;5010400;28;20033;-71
2022/04/04 05:58:30;;;;;;;12.55;3.53;;;4.10;99.90;;;2.55;86.61;100237.16;4994502;28;20030;-72
2022/04/04 06:00:56;;;;;;;8.00;3.35;;;4.10;99.90;;;2.57;86.59;100235.41;4971256;28;20125;-72
2022/04/04 06:03:22;;;;;;;7.45;3.67;;;4.20;99.90;;;2.66;86.23;100236.06;4981900;28;20027;-71
2022/04/04 06:05:51;;;;;;;7.85;3.20;;;4.20;99.90;;;2.69;86.07;100213.50;4964110;28;20053;-72
2022/04/04 06:08:17;;;;;;;8.57;3.00;;;4.30;99.90;;;2.69;86.09;100214.34;4979343;28;20041;-72
2022/04/04 06:10:47;;;;;;;10.57;3.53;;;4.30;99.90;;;2.77;86.04;100216.78;4980685;28;24071;-72
2022/04/04 06:13:18;;;;;;;5.32;3.13;;;4.30;99.90;;;2.78;85.84;100210.69;4979116;28;20053;-71
2022/04/04 06:15:46;;;;;;;11.38;3.38;;;4.30;99.90;;;2.78;85.73;100205.47;4976962;28;20092;-72
2022/04/04 06:18:15;;;;;;;15.77;3.45;;;4.30;99.90;;;2.75;85.78;100206.41;4964997;28;20046;-71
2022/04/04 06:20:42;;;;;;;5.40;3.20;;;4.30;99.90;;;2.76;86.09;100200.31;4980863;28;20057;-72
2022/04/04 06:23:11;;;;;;;6.72;3.40;;;4.30;99.90;;;2.80;86.13;100193.31;4979359;28;20015;-72
2022/04/04 06:25:38;;;;;;;6.70;3.47;;;4.40;99.90;;;2.82;85.76;100181.13;4978976;28;20030;-72
2022/04/04 06:28:06;;;;;;;7.93;3.63;;;4.40;99.90;;;2.88;85.67;100179.22;4982067;28;20429;-72
2022/04/04 06:30:31;;;;;;;5.28;3.15;;;4.40;99.90;;;2.83;85.50;100183.69;4981135;28;20034;-72
2022/04/04 06:32:59;;;;;;;11.40;3.33;;;4.40;99.90;;;2.86;85.77;100181.00;4979301;28;20116;-71
2022/04/04 06:35:25;;;;;;;8.27;3.53;;;4.40;99.90;;;2.88;85.03;100175.78;4982445;28;20057;-73
2022/04/04 06:37:54;;;;;;;10.15;3.47;;;4.40;99.90;;;2.89;84.87;100167.06;4985870;28;20088;-72
2022/04/04 06:40:22;;;;;;;8.43;3.30;;;4.50;99.90;;;2.88;84.88;100154.97;4986614;28;20670;-72
2022/04/04 06:42:51;;;;;;;5.90;3.15;;;4.50;99.90;;;2.95;84.91;100156.53;4982100;28;20920;-71
2022/04/04 06:45:20;;;;;;;6.72;3.65;;;4.50;99.90;;;3.03;84.50;100156.34;4983530;28;20022;-72
2022/04/04 06:47:46;;;;;;;9.98;3.45;;;4.60;99.90;;;3.08;83.94;100141.47;4982967;28;20472;-72
2022/04/04 06:50:15;;;;;;;5.53;3.45;;;4.60;99.90;;;3.13;83.83;100143.94;4984166;28;20467;-72
2022/04/04 06:52:42;;;;;;;7.03;3.90;;;4.70;99.90;;;3.16;83.65;100130.88;4983997;28;20034;-72
2022/04/04 06:55:11;;;;;;;10.93;3.75;;;4.70;99.90;;;3.26;82.47;100129.72;4974958;28;20439;-72
2022/04/04 06:57:38;;;;;;;7.65;3.13;;;4.70;99.90;;;3.36;82.62;100123.41;5009994;28;20041;-72
2022/04/04 07:00:08;;;;;;;9.20;3.50;;;4.80;99.90;;;3.38;81.71;100111.19;4982737;28;20035;-72
2022/04/04 07:02:36;;;;;;;8.30;3.53;;;4.90;99.90;;;3.51;81.56;100113.47;4985347;28;20550;-72
2022/04/04 07:05:05;;;;;;;9.13;3.67;;;5.00;99.90;;;3.68;80.50;100108.66;4984740;28;20038;-71
2022/04/04 07:07:32;;;;;;;5.63;3.15;;;5.10;99.90;;;3.70;79.52;100099.91;4966757;28;20026;-72
2022/04/04 07:09:59;;;;;;;7.45;4.05;;;5.20;99.90;;;3.93;79.13;100089.72;4985536;28;21563;-71
2022/04/04 07:12:27;;;;;;;11.10;4.00;;;5.30;99.90;;;4.18;78.26;100089.84;4981000;28;21249;-72
2022/04/04 07:14:54;;;;;;;19.45;5.50;;;5.40;99.90;;;4.21;77.48;100085.41;4982273;28;20069;-71
2022/04/04 07:17:20;;;;;;;14.27;4.43;;;5.50;99.90;;;4.24;77.24;100074.03;4966432;28;20029;-72
2022/04/04 07:19:46;;;;;;;9.80;4.50;;;5.60;99.90;;;4.19;76.70;100066.34;4986713;28;20050;-72
2022/04/04 07:22:14;;;;;;;7.38;3.42;;;5.60;99.90;;;4.18;76.55;100063.78;4979975;28;20027;-71
2022/04/04 07:24:40;;;;;;;5.70;3.22;;;5.60;99.90;;;4.31;75.68;100046.88;4998773;28;20030;-72
2022/04/04 07:27:06;;;;;;;10.35;3.80;;;5.70;99.90;;;4.46;75.44;100048.13;4983657;28;20108;-73
2022/04/04 07:29:33;;;;;;;10.13;4.13;;;5.80;99.90;;;4.50;74.46;100049.75;4983452;28;20049;-72
2022/04/04 07:31:59;;;;;;;7.45;3.50;;;5.80;99.90;;;4.54;73.76;100032.25;4997405;28;20058;-72
2022/04/04 07:34:25;;;;;;;4.95;2.90;;;5.90;99.90;;;4.51;73.47;100033.19;4983210;28;20122;-72
2022/04/04 07:36:51;;;;;;;6.82;3.60;;;6.00;99.90;;;4.80;72.62;100026.16;4989040;28;20090;-72
2022/04/04 07:39:17;;;;;;;6.75;3.08;;;6.10;99.90;;;4.96;72.20;100013.44;4984939;28;20422;-72
2022/04/04 07:41:43;;;;;;;8.95;3.20;;;6.20;99.90;;;5.04;71.25;100008.81;4980816;28;20027;-72
2022/04/04 07:44:09;;;;;;;8.60;3.13;;;6.30;99.90;;;5.23;70.27;100001.19;4988206;28;20034;-72
2022/04/04 07:46:35;;;;;;;10.70;2.92;;;6.50;99.90;;;5.40;69.49;99984.88;4985339;28;20038;-72
2022/04/04 07:49:00;;;;;;;5.03;3.30;;;6.70;99.90;;;5.63;68.38;99986.63;4983861;28;20425;-72
2022/04/04 07:51:27;;;;;;;18.05;3.55;;;6.80;99.90;;;5.72;67.61;99983.66;4987130;28;20057;-73
2022/04/04 07:53:56;;;;;;;6.53;3.05;;;6.90;99.90;;;5.81;67.49;99975.50;4980363;28;20571;-73
2022/04/04 07:56:23;;;;;;;11.05;4.03;;;7.00;99.90;;;5.87;66.88;99975.22;4980654;28;20038;-71
2022/04/04 07:58:49;;;;;;;9.00;3.38;;;7.10;99.90;;;5.97;66.67;99969.69;4980971;28;20051;-72
2022/04/04 08:01:15;;;;;;;7.03;3.40;;;7.20;99.90;;;6.06;66.00;99974.53;4982219;28;20022;-72
2022/04/04 08:03:41;;;;;;;7.25;3.75;;;7.40;99.90;;;6.18;65.29;99962.72;4974825;28;20035;-72
2022/04/04 08:06:07;;;;;;;7.88;3.72;;;7.40;99.90;;;6.29;65.03;99956.16;4980698;28;20459;-73
2022/04/04 08:08:33;;;;;;;7.68;3.78;;;7.50;99.90;;;6.26;64.96;99951.03;4980740;28;20530;-72
2022/04/04 08:11:00;;;;;;;6.45;4.10;;;7.50;99.90;;;6.26;64.75;99953.66;4980909;28;20497;-72
2022/04/04 08:13:26;;;;;;;6.70;3.50;;;7.50;99.90;;;6.15;65.14;99941.06;4972671;28;20042;-72
2022/04/04 08:15:53;;;;;;;7.57;4.03;;;7.60;99.90;;;6.45;64.49;99950.28;4981453;28;20041;-72
2022/04/04 08:18:18;;;;;;;6.55;3.67;;;7.70;99.90;;;6.54;64.35;99950.78;5008850;28;20030;-72
2022/04/04 08:20:44;;;;;;;10.02;4.38;;;7.80;99.90;;;6.76;63.09;99940.25;4987886;28;20399;-74
2022/04/04 08:23:11;;;;;;;6.45;3.95;;;8.10;99.90;;;7.22;62.17;99937.34;4984667;28;20040;-72
2022/04/04 08:25:37;;;;;;;7.45;4.65;;;8.40;99.90;;;7.97;60.38;99922.50;4995844;28;20039;-72
2022/04/04 08:28:03;;;;;;;7.65;4.25;;;9.00;99.90;;;8.67;58.14;99923.38;4973279;28;20030;-73
2022/04/04 08:30:30;;;;;;;9.35;4.35;;;9.40;99.90;;;8.86;57.35;99910.16;4981965;28;20114;-71
2022/04/04 08:32:56;;;;;;;9.38;4.60;;;9.70;99.90;;;9.07;56.74;99897.69;4980551;28;20495;-72
2022/04/04 08:35:21;;;;;;;10.80;4.60;;;9.90;99.90;;;8.86;56.18;99901.44;4981604;28;20054;-71
2022/04/04 08:37:47;;;;;;;14.52;5.18;;;10.00;99.90;;;9.01;56.03;99892.75;4979181;28;20049;-72
2022/04/04 08:40:18;;;;;;;8.07;4.57;;;10.10;99.90;;;9.30;55.68;99887.69;4982884;28;20546;-72
2022/04/04 08:42:45;;;;;;;8.27;4.75;;;10.20;99.90;;;9.01;55.21;99883.09;4982244;28;20034;-72
2022/04/04 08:45:12;;;;;;;7.93;5.00;;;10.10;99.90;;;8.68;55.70;99869.94;4980110;28;20088;-72
2022/04/04 08:47:41;;;;;;;9.32;5.60;;;10.10;99.90;;;8.88;56.02;99868.09;4982392;28;20683;-72
2022/04/04 08:50:10;;;;;;;6.88;5.05;;;10.10;99.90;;;8.86;56.62;99872.56;4982756;28;20056;-72
2022/04/04 08:52:37;;;;;;;8.85;5.43;;;9.90;99.90;;;8.33;57.09;99864.72;4978997;28;20033;-72
2022/04/04 08:55:03;;;;;;;14.95;5.60;;;9.60;99.90;;;7.89;58.45;99859.94;4949567;28;20468;-72
2022/04/04 08:57:29;;;;;;;11.82;6.25;;;9.30;99.90;;;7.43;58.66;99862.19;4982811;28;20034;-73
2022/04/04 08:59:55;;;;;;;10.68;5.35;;;9.10;99.90;;;7.43;59.72;99856.94;4982820;28;20038;-72
2022/04/04 09:02:21;;;;;;;12.27;5.38;;;8.90;99.90;;;7.23;59.87;99851.78;4981508;28;20030;-72
2022/04/04 09:04:52;;;;;;;8.65;6.20;;;8.70;99.90;;;6.98;60.73;99827.59;4981822;28;20022;-72
2022/04/04 09:07:21;;;;;;;11.25;6.18;;;8.60;99.90;;;7.04;60.90;99829.09;5011343;28;20029;-72
2022/04/04 09:09:50;;;;;;;10.20;5.80;;;8.40;99.90;;;6.76;61.62;99830.34;4981358;28;20026;-72
2022/04/04 09:12:20;;;;;;;19.02;6.78;;;8.30;99.90;;;6.70;62.11;99822.78;4976705;28;20058;-73
2022/04/04 09:14:53;;;;;;;19.80;6.78;;;8.20;99.90;;;6.78;62.37;99820.66;4985841;28;20028;-71
2022/04/04 09:17:24;;;;;;;16.00;7.78;;;8.20;99.90;;;6.79;62.62;99808.41;4972067;28;20022;-72
2022/04/04 09:19:55;;;;;;;12.15;6.82;;;8.20;99.90;;;6.66;62.80;99805.50;4992180;28;20125;-73
2022/04/04 09:22:22;;;;;;;10.98;6.47;;;8.20;99.90;;;6.59;63.05;99804.09;4985097;28;20515;-72
2022/04/04 09:24:58;;;;;;;10.65;7.55;;;8.00;99.90;;;6.43;63.95;99790.00;4981227;28;20029;-72
2022/04/04 09:27:34;;;;;;;17.35;8.73;;;7.90;99.90;;;6.34;65.36;99791.25;4994906;28;20054;-72
2022/04/04 09:30:07;;;;;;;;;;;7.90;99.90;;;6.34;65.44;99786.88;4983373;28;20088;-72
2022/04/04 09:32:46;;;;;;;15.07;7.90;;;7.80;99.90;;;6.15;66.21;99783.34;4978757;28;20278;-71
2022/04/04 09:35:18;;;;;;;14.13;8.50;;;7.70;99.90;;;6.06;66.76;99782.00;4977352;28;20088;-71
2022/04/04 09:37:50;;;;;;;12.77;8.35;;;7.60;99.90;;;5.87;68.09;99766.22;4979583;28;20034;-72
2022/04/04 09:40:27;;;;;;;14.55;9.02;;;7.50;99.90;;;5.81;69.74;99765.63;4995250;28;20074;-72
2022/04/04 09:42:53;;;;;;;18.75;9.27;;;7.40;99.90;;;5.64;70.56;99761.97;4978501;28;20025;-72
2022/04/04 09:45:25;;;;;;;15.45;9.27;;;7.20;99.90;;;5.61;71.19;99742.97;4981557;28;20022;-72
2022/04/04 09:48:04;;;;;;;15.07;10.13;;;7.20;99.90;;;5.51;72.07;99735.50;4993820;28;20141;-72
2022/04/04 09:50:49;;;;;;;15.05;10.38;;;7.10;99.90;;;5.38;73.05;99728.22;4979086;28;20030;-71
2022/04/04 09:53:22;;;;;;;14.55;9.55;;;7.00;99.90;;;5.29;74.20;99727.72;4978766;28;20096;-71
2022/04/04 09:56:00;;;;;;;16.70;10.07;;;6.90;99.90;;;5.14;74.92;99721.38;4973141;28;20402;-72
2022/04/04 09:58:30;;;;;;;19.25;9.82;;;6.80;99.90;;;5.05;75.66;99713.88;4981497;28;20100;-72
2022/04/04 10:01:02;;;;;;;15.80;10.32;;;6.70;99.90;;;5.05;76.17;99706.06;4977457;28;20402;-72
2022/04/04 10:03:31;;;;;;;14.95;9.48;;;6.60;99.90;;;4.93;76.84;99704.78;4969568;28;20034;-72
2022/04/04 10:06:12;;;;;;;24.63;10.65;;;6.50;99.90;;;4.91;77.79;99687.50;4980492;28;21427;-72
2022/04/04 10:08:39;;;;;;;15.20;11.18;;;6.50;99.90;;;4.95;78.48;99676.03;4978883;28;20023;-71
2022/04/04 10:11:09;;;;;;;16.60;11.15;;;6.50;99.90;;;4.93;79.20;99670.03;4982337;28;20026;-72
2022/04/04 10:13:36;;;;;;;19.90;11.57;;;6.50;99.90;;;4.99;79.94;99656.75;4982658;28;20113;-72
2022/04/04 10:16:05;;;;;;;15.55;10.40;;;6.50;99.90;;;4.91;80.26;99649.22;4981722;28;20030;-72
2022/04/04 10:18:37;;;;;;;15.88;10.85;;;6.40;99.90;;;4.82;81.01;99644.38;4966655;28;20049;-71
2022/04/04 10:21:03;;;;;;;16.65;11.48;;;6.40;99.90;;;4.67;82.05;99634.56;4977628;28;20092;-72
2022/04/04 10:23:36;;;;;;;18.92;12.45;;;6.30;99.90;;;4.59;82.52;99624.44;4971553;28;20416;-72
2022/04/04 10:26:03;;;;;;;15.70;11.88;;;6.20;99.90;;;4.40;83.73;99621.69;4983493;28;20041;-73
2022/04/04 10:28:43;;;;;;;15.75;11.27;;;6.10;99.90;;;4.27;84.26;99605.69;4987519;28;20038;-73
2022/04/04 10:31:21;;;;;;;15.15;10.32;;;6.00;99.90;;;4.20;85.35;99596.41;4982954;28;20439;-72